sensor_id;sensor_type;location;lat;lon;timestamp;P1;durP1;ratioP1;P2;durP2;ratioP2
26478;SDS011;14163;-26.142;27.992;2022-07-06T00:01:03;15.70;;;13.50;;
26478;SDS011;14163;-26.142;27.992;2022-07-06T00:03:33;13.53;;;12.33;;
26478;SDS011;14163;-26.142;27.992;2022-07-06T00:06:02;15.23;;;12.60;;
26478;SDS011;14163;-26.142;27.992;2022-07-06T00:08:31;14.93;;;13.30;;
26478;SDS011;14163;-26.142;27.992;2022-07-06T00:11:01;14.30;;;13.07;;
26478;SDS011;14163;-26.142;27.992;2022-07-06T00:13:30;13.93;;;12.60;;
26478;SDS011;14163;-26.142;27.992;2022-07-06T00:15:59;15.33;;;13.80;;
26478;SDS011;14163;-26.142;27.992;2022-07-06T00:18:30;14.20;;;12.80;;
26478;SDS011;14163;-26.142;27.992;2022-07-06T00:20:59;13.93;;;12.40;;
26478;SDS011;14163;-26.142;27.992;2022-07-06T00:23:28;16.43;;;13.17;;
26478;SDS011;14163;-26.142;27.992;2022-07-06T00:25:57;13.90;;;12.50;;
26478;SDS011;14163;-26.142;27.992;2022-07-06T00:28:26;14.40;;;12.37;;
26478;SDS011;14163;-26.142;27.992;2022-07-06T00:30:56;14.30;;;12.80;;
26478;SDS011;14163;-26.142;27.992;2022-07-06T00:33:25;15.53;;;13.60;;
26478;SDS011;14163;-26.142;27.992;2022-07-06T00:35:55;14.60;;;13.20;;
26478;SDS011;14163;-26.142;27.992;2022-07-06T00:38:25;15.27;;;13.70;;
26478;SDS011;14163;-26.142;27.992;2022-07-06T00:40:54;13.07;;;11.87;;
26478;SDS011;14163;-26.142;27.992;2022-07-06T00:43:23;17.93;;;14.03;;
26478;SDS011;14163;-26.142;27.992;2022-07-06T00:45:52;15.30;;;13.70;;
26478;SDS011;14163;-26.142;27.992;2022-07-06T00:48:22;15.70;;;13.80;;
26478;SDS011;14163;-26.142;27.992;2022-07-06T00:50:51;14.20;;;12.87;;
26478;SDS011;14163;-26.142;27.992;2022-07-06T00:53:22;15.80;;;14.30;;
26478;SDS011;14163;-26.142;27.992;2022-07-06T00:55:51;17.70;;;14.40;;
26478;SDS011;14163;-26.142;27.992;2022-07-06T00:58:20;16.80;;;13.50;;
26478;SDS011;14163;-26.142;27.992;2022-07-06T01:00:49;15.10;;;13.67;;
26478;SDS011;14163;-26.142;27.992;2022-07-06T01:03:18;15.27;;;13.77;;
26478;SDS011;14163;-26.142;27.992;2022-07-06T01:05:47;14.27;;;12.90;;
26478;SDS011;14163;-26.142;27.992;2022-07-06T01:08:17;14.83;;;13.37;;
26478;SDS011;14163;-26.142;27.992;2022-07-06T01:10:49;16.17;;;13.30;;
26478;SDS011;14163;-26.142;27.992;2022-07-06T01:13:18;14.80;;;13.37;;
26478;SDS011;14163;-26.142;27.992;2022-07-06T01:15:47;15.17;;;13.77;;
26478;SDS011;14163;-26.142;27.992;2022-07-06T01:18:16;14.83;;;13.53;;
26478;SDS011;14163;-26.142;27.992;2022-07-06T01:20:47;19.10;;;14.43;;
26478;SDS011;14163;-26.142;27.992;2022-07-06T01:23:17;15.30;;;13.90;;
26478;SDS011;14163;-26.142;27.992;2022-07-06T01:25:46;15.60;;;14.03;;
26478;SDS011;14163;-26.142;27.992;2022-07-06T01:28:15;15.40;;;14.00;;
26478;SDS011;14163;-26.142;27.992;2022-07-06T01:30:44;16.80;;;14.20;;
26478;SDS011;14163;-26.142;27.992;2022-07-06T01:33:14;16.70;;;14.00;;
26478;SDS011;14163;-26.142;27.992;2022-07-06T01:35:43;16.00;;;14.23;;
26478;SDS011;14163;-26.142;27.992;2022-07-06T01:38:14;16.83;;;15.23;;
26478;SDS011;14163;-26.142;27.992;2022-07-06T01:40:43;16.03;;;14.43;;
26478;SDS011;14163;-26.142;27.992;2022-07-06T01:43:12;15.80;;;14.40;;
26478;SDS011;14163;-26.142;27.992;2022-07-06T01:45:41;15.70;;;14.10;;
26478;SDS011;14163;-26.142;27.992;2022-07-06T01:48:10;18.00;;;15.50;;
26478;SDS011;14163;-26.142;27.992;2022-07-06T01:50:40;17.27;;;15.50;;
26478;SDS011;14163;-26.142;27.992;2022-07-06T01:53:09;18.27;;;16.50;;
26478;SDS011;14163;-26.142;27.992;2022-07-06T01:55:40;16.53;;;15.03;;
26478;SDS011;14163;-26.142;27.992;2022-07-06T01:58:09;17.13;;;14.80;;
26478;SDS011;14163;-26.142;27.992;2022-07-06T02:00:38;18.40;;;16.67;;
26478;SDS011;14163;-26.142;27.992;2022-07-06T02:03:07;15.83;;;14.47;;
26478;SDS011;14163;-26.142;27.992;2022-07-06T02:05:36;16.20;;;14.73;;
26478;SDS011;14163;-26.142;27.992;2022-07-06T02:08:06;17.93;;;15.87;;
26478;SDS011;14163;-26.142;27.992;2022-07-06T02:10:35;17.27;;;15.50;;
26478;SDS011;14163;-26.142;27.992;2022-07-06T02:13:06;17.50;;;15.90;;
26478;SDS011;14163;-26.142;27.992;2022-07-06T02:15:35;15.80;;;14.40;;
26478;SDS011;14163;-26.142;27.992;2022-07-06T02:18:04;16.30;;;14.80;;
26478;SDS011;14163;-26.142;27.992;2022-07-06T02:20:33;16.70;;;15.20;;
26478;SDS011;14163;-26.142;27.992;2022-07-06T02:23:02;15.67;;;14.17;;
26478;SDS011;14163;-26.142;27.992;2022-07-06T02:25:32;16.07;;;14.33;;
26478;SDS011;14163;-26.142;27.992;2022-07-06T02:28:01;16.73;;;15.13;;
26478;SDS011;14163;-26.142;27.992;2022-07-06T02:30:32;17.80;;;15.93;;
26478;SDS011;14163;-26.142;27.992;2022-07-06T02:33:01;18.03;;;16.13;;
26478;SDS011;14163;-26.142;27.992;2022-07-06T02:35:30;19.27;;;17.30;;
26478;SDS011;14163;-26.142;27.992;2022-07-06T02:37:59;17.53;;;15.93;;
26478;SDS011;14163;-26.142;27.992;2022-07-06T02:40:28;18.50;;;16.80;;
26478;SDS011;14163;-26.142;27.992;2022-07-06T02:42:57;20.93;;;16.87;;
26478;SDS011;14163;-26.142;27.992;2022-07-06T02:45:27;18.03;;;16.17;;
26478;SDS011;14163;-26.142;27.992;2022-07-06T02:47:58;16.30;;;15.00;;
26478;SDS011;14163;-26.142;27.992;2022-07-06T02:50:27;15.10;;;13.80;;
26478;SDS011;14163;-26.142;27.992;2022-07-06T02:52:56;16.97;;;15.27;;
26478;SDS011;14163;-26.142;27.992;2022-07-06T02:55:27;16.73;;;15.00;;
26478;SDS011;14163;-26.142;27.992;2022-07-06T02:57:56;15.77;;;14.17;;
26478;SDS011;14163;-26.142;27.992;2022-07-06T03:00:25;15.47;;;14.00;;
26478;SDS011;14163;-26.142;27.992;2022-07-06T03:02:54;25.67;;;14.67;;
26478;SDS011;14163;-26.142;27.992;2022-07-06T03:05:25;16.47;;;14.90;;
26478;SDS011;14163;-26.142;27.992;2022-07-06T03:07:55;14.90;;;13.60;;
26478;SDS011;14163;-26.142;27.992;2022-07-06T03:10:24;15.37;;;13.87;;
26478;SDS011;14163;-26.142;27.992;2022-07-06T03:12:53;14.43;;;12.90;;
26478;SDS011;14163;-26.142;27.992;2022-07-06T03:15:22;14.50;;;13.10;;
26478;SDS011;14163;-26.142;27.992;2022-07-06T03:17:52;14.50;;;13.20;;
26478;SDS011;14163;-26.142;27.992;2022-07-06T03:20:23;15.37;;;13.73;;
26478;SDS011;14163;-26.142;27.992;2022-07-06T03:22:52;15.03;;;13.63;;
26478;SDS011;14163;-26.142;27.992;2022-07-06T03:25:21;14.77;;;13.47;;
26478;SDS011;14163;-26.142;27.992;2022-07-06T03:27:50;15.57;;;13.87;;
26478;SDS011;14163;-26.142;27.992;2022-07-06T03:30:19;16.63;;;14.83;;
26478;SDS011;14163;-26.142;27.992;2022-07-06T03:32:48;16.87;;;15.27;;
26478;SDS011;14163;-26.142;27.992;2022-07-06T03:35:18;17.00;;;15.23;;
26478;SDS011;14163;-26.142;27.992;2022-07-06T03:37:48;17.70;;;15.83;;
26478;SDS011;14163;-26.142;27.992;2022-07-06T03:40:18;17.53;;;15.90;;
26478;SDS011;14163;-26.142;27.992;2022-07-06T03:42:47;21.17;;;16.20;;
26478;SDS011;14163;-26.142;27.992;2022-07-06T03:45:16;16.47;;;14.70;;
26478;SDS011;14163;-26.142;27.992;2022-07-06T03:47:45;17.30;;;15.60;;
26478;SDS011;14163;-26.142;27.992;2022-07-06T03:50:14;18.07;;;16.37;;
26478;SDS011;14163;-26.142;27.992;2022-07-06T03:52:43;17.33;;;15.73;;
26478;SDS011;14163;-26.142;27.992;2022-07-06T03:55:14;17.30;;;15.60;;
26478;SDS011;14163;-26.142;27.992;2022-07-06T03:57:43;15.97;;;14.57;;
26478;SDS011;14163;-26.142;27.992;2022-07-06T04:00:13;17.10;;;15.37;;
26478;SDS011;14163;-26.142;27.992;2022-07-06T04:02:42;16.60;;;15.07;;
26478;SDS011;14163;-26.142;27.992;2022-07-06T04:05:11;17.67;;;15.87;;
26478;SDS011;14163;-26.142;27.992;2022-07-06T04:07:41;17.47;;;15.60;;
26478;SDS011;14163;-26.142;27.992;2022-07-06T04:10:10;17.70;;;16.03;;
26478;SDS011;14163;-26.142;27.992;2022-07-06T04:12:44;21.37;;;17.30;;
26478;SDS011;14163;-26.142;27.992;2022-07-06T04:15:13;19.67;;;17.67;;
26478;SDS011;14163;-26.142;27.992;2022-07-06T04:17:42;18.83;;;16.97;;
26478;SDS011;14163;-26.142;27.992;2022-07-06T04:20:21;18.10;;;16.20;;
26478;SDS011;14163;-26.142;27.992;2022-07-06T04:22:51;17.57;;;15.80;;
26478;SDS011;14163;-26.142;27.992;2022-07-06T04:25:21;18.40;;;16.23;;
26478;SDS011;14163;-26.142;27.992;2022-07-06T04:27:52;17.23;;;15.57;;
26478;SDS011;14163;-26.142;27.992;2022-07-06T04:30:21;16.23;;;14.80;;
26478;SDS011;14163;-26.142;27.992;2022-07-06T04:32:50;17.27;;;15.57;;
26478;SDS011;14163;-26.142;27.992;2022-07-06T04:35:21;16.10;;;14.70;;
26478;SDS011;14163;-26.142;27.992;2022-07-06T04:37:50;16.73;;;14.63;;
26478;SDS011;14163;-26.142;27.992;2022-07-06T04:40:19;17.63;;;15.87;;
26478;SDS011;14163;-26.142;27.992;2022-07-06T04:42:48;15.47;;;13.60;;
26478;SDS011;14163;-26.142;27.992;2022-07-06T04:45:19;15.73;;;14.23;;
26478;SDS011;14163;-26.142;27.992;2022-07-06T04:47:48;15.60;;;14.10;;
26478;SDS011;14163;-26.142;27.992;2022-07-06T04:50:17;16.40;;;14.80;;
26478;SDS011;14163;-26.142;27.992;2022-07-06T04:52:46;15.43;;;13.90;;
26478;SDS011;14163;-26.142;27.992;2022-07-06T04:55:16;16.57;;;14.80;;
26478;SDS011;14163;-26.142;27.992;2022-07-06T04:57:45;18.03;;;14.80;;
26478;SDS011;14163;-26.142;27.992;2022-07-06T05:00:16;15.93;;;13.83;;
26478;SDS011;14163;-26.142;27.992;2022-07-06T05:02:46;16.20;;;14.33;;
26478;SDS011;14163;-26.142;27.992;2022-07-06T05:05:15;16.60;;;14.80;;
26478;SDS011;14163;-26.142;27.992;2022-07-06T05:07:44;15.77;;;14.37;;
26478;SDS011;14163;-26.142;27.992;2022-07-06T05:10:13;16.93;;;15.23;;
26478;SDS011;14163;-26.142;27.992;2022-07-06T05:12:43;17.57;;;15.73;;
26478;SDS011;14163;-26.142;27.992;2022-07-06T05:15:12;21.20;;;16.10;;
26478;SDS011;14163;-26.142;27.992;2022-07-06T05:17:43;17.50;;;15.63;;
26478;SDS011;14163;-26.142;27.992;2022-07-06T05:20:12;18.97;;;17.07;;
26478;SDS011;14163;-26.142;27.992;2022-07-06T05:22:41;26.13;;;22.10;;
26478;SDS011;14163;-26.142;27.992;2022-07-06T05:25:10;36.13;;;29.50;;
26478;SDS011;14163;-26.142;27.992;2022-07-06T05:27:39;52.33;;;41.70;;
26478;SDS011;14163;-26.142;27.992;2022-07-06T05:30:09;53.57;;;42.37;;
26478;SDS011;14163;-26.142;27.992;2022-07-06T05:32:38;53.70;;;42.83;;
26478;SDS011;14163;-26.142;27.992;2022-07-06T05:35:10;47.77;;;37.70;;
26478;SDS011;14163;-26.142;27.992;2022-07-06T05:37:39;58.67;;;44.90;;
26478;SDS011;14163;-26.142;27.992;2022-07-06T05:40:08;52.60;;;41.37;;
26478;SDS011;14163;-26.142;27.992;2022-07-06T05:42:38;51.00;;;41.10;;
26478;SDS011;14163;-26.142;27.992;2022-07-06T05:45:08;39.60;;;32.30;;
26478;SDS011;14163;-26.142;27.992;2022-07-06T05:47:37;37.97;;;29.27;;
26478;SDS011;14163;-26.142;27.992;2022-07-06T05:50:24;38.27;;;32.50;;
26478;SDS011;14163;-26.142;27.992;2022-07-06T05:52:57;41.23;;;31.90;;
26478;SDS011;14163;-26.142;27.992;2022-07-06T05:55:27;39.40;;;29.13;;
26478;SDS011;14163;-26.142;27.992;2022-07-06T05:57:56;35.40;;;28.93;;
26478;SDS011;14163;-26.142;27.992;2022-07-06T06:00:26;34.77;;;28.67;;
26478;SDS011;14163;-26.142;27.992;2022-07-06T06:02:56;32.60;;;28.23;;
26478;SDS011;14163;-26.142;27.992;2022-07-06T06:05:28;33.43;;;26.80;;
26478;SDS011;14163;-26.142;27.992;2022-07-06T06:07:57;30.30;;;25.80;;
26478;SDS011;14163;-26.142;27.992;2022-07-06T06:10:26;29.10;;;24.33;;
26478;SDS011;14163;-26.142;27.992;2022-07-06T06:12:56;27.53;;;24.57;;
26478;SDS011;14163;-26.142;27.992;2022-07-06T08:07:51;11.07;;;10.00;;
26478;SDS011;14163;-26.142;27.992;2022-07-06T08:10:20;12.40;;;10.80;;
26478;SDS011;14163;-26.142;27.992;2022-07-06T08:12:49;15.10;;;11.73;;
26478;SDS011;14163;-26.142;27.992;2022-07-06T08:15:19;10.93;;;9.93;;
26478;SDS011;14163;-26.142;27.992;2022-07-06T08:17:48;15.27;;;13.77;;
26478;SDS011;14163;-26.142;27.992;2022-07-06T08:20:17;11.80;;;10.60;;
26478;SDS011;14163;-26.142;27.992;2022-07-06T08:22:47;12.67;;;11.37;;
26478;SDS011;14163;-26.142;27.992;2022-07-06T08:25:17;12.50;;;11.20;;
26478;SDS011;14163;-26.142;27.992;2022-07-06T08:27:47;11.67;;;10.47;;
26478;SDS011;14163;-26.142;27.992;2022-07-06T08:30:16;10.33;;;9.43;;
26478;SDS011;14163;-26.142;27.992;2022-07-06T08:32:45;10.77;;;9.43;;
26478;SDS011;14163;-26.142;27.992;2022-07-06T08:35:14;10.63;;;9.53;;
26478;SDS011;14163;-26.142;27.992;2022-07-06T08:37:43;23.47;;;21.27;;
26478;SDS011;14163;-26.142;27.992;2022-07-06T08:40:13;10.70;;;9.80;;
26478;SDS011;14163;-26.142;27.992;2022-07-06T08:42:43;10.90;;;9.90;;
26478;SDS011;14163;-26.142;27.992;2022-07-06T08:45:15;10.60;;;9.60;;
26478;SDS011;14163;-26.142;27.992;2022-07-06T08:47:45;10.30;;;9.13;;
26478;SDS011;14163;-26.142;27.992;2022-07-06T08:50:17;9.63;;;8.60;;
26478;SDS011;14163;-26.142;27.992;2022-07-06T08:52:48;15.63;;;9.47;;
26478;SDS011;14163;-26.142;27.992;2022-07-06T08:55:18;9.50;;;8.70;;
26478;SDS011;14163;-26.142;27.992;2022-07-06T08:57:49;9.07;;;8.17;;
26478;SDS011;14163;-26.142;27.992;2022-07-06T09:00:19;8.00;;;7.40;;
26478;SDS011;14163;-26.142;27.992;2022-07-06T09:02:48;10.60;;;9.07;;
26478;SDS011;14163;-26.142;27.992;2022-07-06T09:05:21;9.83;;;8.90;;
26478;SDS011;14163;-26.142;27.992;2022-07-06T09:07:51;9.90;;;9.00;;
26478;SDS011;14163;-26.142;27.992;2022-07-06T09:10:21;10.63;;;8.87;;
26478;SDS011;14163;-26.142;27.992;2022-07-06T09:12:52;11.83;;;10.63;;
26478;SDS011;14163;-26.142;27.992;2022-07-06T09:15:29;13.53;;;12.23;;
26478;SDS011;14163;-26.142;27.992;2022-07-06T09:17:58;11.73;;;10.63;;
26478;SDS011;14163;-26.142;27.992;2022-07-06T09:20:27;12.33;;;11.20;;
26478;SDS011;14163;-26.142;27.992;2022-07-06T09:23:00;11.50;;;10.50;;
26478;SDS011;14163;-26.142;27.992;2022-07-06T09:25:31;11.60;;;10.60;;
26478;SDS011;14163;-26.142;27.992;2022-07-06T09:28:02;9.33;;;8.37;;
26478;SDS011;14163;-26.142;27.992;2022-07-06T09:30:32;10.83;;;9.60;;
26478;SDS011;14163;-26.142;27.992;2022-07-06T09:33:05;10.73;;;9.30;;
26478;SDS011;14163;-26.142;27.992;2022-07-06T09:35:38;11.30;;;10.20;;
26478;SDS011;14163;-26.142;27.992;2022-07-06T09:38:07;11.17;;;9.07;;
26478;SDS011;14163;-26.142;27.992;2022-07-06T09:40:37;8.73;;;7.90;;
26478;SDS011;14163;-26.142;27.992;2022-07-06T09:43:13;9.37;;;8.40;;
26478;SDS011;14163;-26.142;27.992;2022-07-06T09:45:44;9.80;;;8.90;;
26478;SDS011;14163;-26.142;27.992;2022-07-06T09:48:16;8.07;;;7.37;;
26478;SDS011;14163;-26.142;27.992;2022-07-06T09:50:47;7.37;;;6.60;;
26478;SDS011;14163;-26.142;27.992;2022-07-06T09:53:18;7.60;;;6.87;;
26478;SDS011;14163;-26.142;27.992;2022-07-06T09:55:50;8.07;;;7.30;;
26478;SDS011;14163;-26.142;27.992;2022-07-06T09:58:22;8.70;;;8.10;;
26478;SDS011;14163;-26.142;27.992;2022-07-06T10:00:51;7.60;;;6.90;;
26478;SDS011;14163;-26.142;27.992;2022-07-06T10:03:21;10.93;;;8.00;;
26478;SDS011;14163;-26.142;27.992;2022-07-06T10:05:50;9.37;;;8.30;;
26478;SDS011;14163;-26.142;27.992;2022-07-06T10:08:19;7.73;;;7.03;;
26478;SDS011;14163;-26.142;27.992;2022-07-06T10:10:49;9.10;;;7.67;;
26478;SDS011;14163;-26.142;27.992;2022-07-06T10:13:19;7.77;;;7.07;;
26478;SDS011;14163;-26.142;27.992;2022-07-06T10:15:52;9.40;;;8.50;;
26478;SDS011;14163;-26.142;27.992;2022-07-06T10:18:23;8.10;;;7.50;;
26478;SDS011;14163;-26.142;27.992;2022-07-06T10:20:53;8.97;;;8.17;;
26478;SDS011;14163;-26.142;27.992;2022-07-06T10:23:24;10.83;;;9.03;;
26478;SDS011;14163;-26.142;27.992;2022-07-06T10:25:55;9.10;;;8.13;;
26478;SDS011;14163;-26.142;27.992;2022-07-06T10:28:27;9.50;;;8.37;;
26478;SDS011;14163;-26.142;27.992;2022-07-06T10:30:57;7.23;;;6.53;;
26478;SDS011;14163;-26.142;27.992;2022-07-06T10:33:26;7.30;;;6.70;;
26478;SDS011;14163;-26.142;27.992;2022-07-06T10:35:56;19.13;;;6.60;;
26478;SDS011;14163;-26.142;27.992;2022-07-06T10:38:30;5.30;;;4.90;;
26478;SDS011;14163;-26.142;27.992;2022-07-06T10:41:03;8.10;;;5.07;;
26478;SDS011;14163;-26.142;27.992;2022-07-06T10:43:35;6.00;;;4.90;;
26478;SDS011;14163;-26.142;27.992;2022-07-06T10:46:05;4.87;;;4.47;;
26478;SDS011;14163;-26.142;27.992;2022-07-06T10:48:36;4.63;;;4.30;;
26478;SDS011;14163;-26.142;27.992;2022-07-06T10:51:06;4.00;;;3.70;;
26478;SDS011;14163;-26.142;27.992;2022-07-06T10:53:36;4.20;;;4.00;;
26478;SDS011;14163;-26.142;27.992;2022-07-06T10:56:06;4.30;;;4.00;;
26478;SDS011;14163;-26.142;27.992;2022-07-06T10:58:39;4.40;;;4.10;;
26478;SDS011;14163;-26.142;27.992;2022-07-06T11:01:09;4.33;;;4.03;;
26478;SDS011;14163;-26.142;27.992;2022-07-06T11:03:40;5.00;;;4.60;;
26478;SDS011;14163;-26.142;27.992;2022-07-06T11:06:10;4.30;;;4.10;;
26478;SDS011;14163;-26.142;27.992;2022-07-06T11:08:45;6.83;;;4.93;;
26478;SDS011;14163;-26.142;27.992;2022-07-06T11:11:19;12.67;;;10.43;;
26478;SDS011;14163;-26.142;27.992;2022-07-06T11:13:52;5.13;;;4.73;;
26478;SDS011;14163;-26.142;27.992;2022-07-06T11:16:23;6.40;;;4.63;;
26478;SDS011;14163;-26.142;27.992;2022-07-06T11:19:09;4.27;;;4.07;;
26478;SDS011;14163;-26.142;27.992;2022-07-06T11:21:40;4.90;;;4.60;;
26478;SDS011;14163;-26.142;27.992;2022-07-06T11:24:13;6.17;;;5.63;;
26478;SDS011;14163;-26.142;27.992;2022-07-06T11:26:43;5.47;;;5.13;;
26478;SDS011;14163;-26.142;27.992;2022-07-06T11:29:16;5.17;;;4.67;;
26478;SDS011;14163;-26.142;27.992;2022-07-06T11:31:47;7.00;;;5.60;;
26478;SDS011;14163;-26.142;27.992;2022-07-06T11:34:18;8.30;;;7.67;;
26478;SDS011;14163;-26.142;27.992;2022-07-06T11:36:48;7.30;;;6.90;;
26478;SDS011;14163;-26.142;27.992;2022-07-06T11:39:22;8.10;;;7.40;;
26478;SDS011;14163;-26.142;27.992;2022-07-06T11:41:54;9.17;;;8.30;;
26478;SDS011;14163;-26.142;27.992;2022-07-06T11:44:25;8.63;;;7.93;;
26478;SDS011;14163;-26.142;27.992;2022-07-06T11:46:55;11.27;;;10.17;;
26478;SDS011;14163;-26.142;27.992;2022-07-06T11:49:26;14.97;;;13.50;;
26478;SDS011;14163;-26.142;27.992;2022-07-06T11:51:56;14.47;;;13.20;;
26478;SDS011;14163;-26.142;27.992;2022-07-06T11:54:25;27.10;;;21.87;;
26478;SDS011;14163;-26.142;27.992;2022-07-06T11:56:55;11.97;;;11.03;;
26478;SDS011;14163;-26.142;27.992;2022-07-06T11:59:29;11.73;;;10.63;;
26478;SDS011;14163;-26.142;27.992;2022-07-06T12:02:00;10.37;;;9.47;;
26478;SDS011;14163;-26.142;27.992;2022-07-06T12:04:31;8.33;;;7.60;;
26478;SDS011;14163;-26.142;27.992;2022-07-06T12:07:00;8.03;;;6.67;;
26478;SDS011;14163;-26.142;27.992;2022-07-06T12:09:31;6.77;;;6.17;;
26478;SDS011;14163;-26.142;27.992;2022-07-06T12:12:03;7.00;;;6.43;;
26478;SDS011;14163;-26.142;27.992;2022-07-06T12:14:36;6.60;;;6.10;;
26478;SDS011;14163;-26.142;27.992;2022-07-06T12:17:06;8.67;;;7.40;;
26478;SDS011;14163;-26.142;27.992;2022-07-06T12:19:36;6.70;;;5.90;;
26478;SDS011;14163;-26.142;27.992;2022-07-06T12:22:06;7.20;;;6.50;;
26478;SDS011;14163;-26.142;27.992;2022-07-06T12:24:36;6.53;;;6.10;;
26478;SDS011;14163;-26.142;27.992;2022-07-06T12:27:13;7.27;;;6.57;;
26478;SDS011;14163;-26.142;27.992;2022-07-06T12:29:44;6.50;;;6.10;;
26478;SDS011;14163;-26.142;27.992;2022-07-06T12:32:14;7.20;;;6.60;;
26478;SDS011;14163;-26.142;27.992;2022-07-06T12:34:44;7.90;;;7.37;;
26478;SDS011;14163;-26.142;27.992;2022-07-06T12:37:13;7.30;;;6.60;;
26478;SDS011;14163;-26.142;27.992;2022-07-06T12:39:43;6.67;;;5.90;;
26478;SDS011;14163;-26.142;27.992;2022-07-06T12:42:15;7.20;;;6.20;;
26478;SDS011;14163;-26.142;27.992;2022-07-06T12:44:47;6.90;;;6.40;;
26478;SDS011;14163;-26.142;27.992;2022-07-06T12:47:18;7.00;;;6.30;;
26478;SDS011;14163;-26.142;27.992;2022-07-06T12:49:51;6.60;;;6.07;;
26478;SDS011;14163;-26.142;27.992;2022-07-06T12:52:33;6.23;;;5.70;;
26478;SDS011;14163;-26.142;27.992;2022-07-06T12:55:03;6.30;;;5.27;;
26478;SDS011;14163;-26.142;27.992;2022-07-06T12:57:42;6.40;;;5.53;;
26478;SDS011;14163;-26.142;27.992;2022-07-06T13:00:14;6.23;;;5.73;;
26478;SDS011;14163;-26.142;27.992;2022-07-06T13:02:44;6.40;;;5.90;;
26478;SDS011;14163;-26.142;27.992;2022-07-06T13:05:14;7.20;;;6.50;;
26478;SDS011;14163;-26.142;27.992;2022-07-06T13:07:44;7.27;;;6.57;;
26478;SDS011;14163;-26.142;27.992;2022-07-06T13:10:14;7.83;;;7.13;;
26478;SDS011;14163;-26.142;27.992;2022-07-06T13:12:44;8.07;;;7.37;;
26478;SDS011;14163;-26.142;27.992;2022-07-06T13:15:15;8.77;;;7.80;;
26478;SDS011;14163;-26.142;27.992;2022-07-06T13:17:44;9.10;;;8.33;;
26478;SDS011;14163;-26.142;27.992;2022-07-06T13:20:13;9.60;;;8.63;;
26478;SDS011;14163;-26.142;27.992;2022-07-06T13:22:43;8.80;;;8.10;;
26478;SDS011;14163;-26.142;27.992;2022-07-06T13:25:12;11.80;;;8.73;;
26478;SDS011;14163;-26.142;27.992;2022-07-06T13:27:41;7.40;;;6.80;;
26478;SDS011;14163;-26.142;27.992;2022-07-06T13:30:10;6.17;;;5.77;;
26478;SDS011;14163;-26.142;27.992;2022-07-06T13:32:41;4.47;;;4.27;;
26478;SDS011;14163;-26.142;27.992;2022-07-06T13:35:11;4.13;;;3.90;;
26478;SDS011;14163;-26.142;27.992;2022-07-06T13:37:40;5.07;;;3.90;;
26478;SDS011;14163;-26.142;27.992;2022-07-06T13:40:09;4.30;;;3.93;;
26478;SDS011;14163;-26.142;27.992;2022-07-06T13:42:39;4.97;;;4.57;;
26478;SDS011;14163;-26.142;27.992;2022-07-06T13:45:08;4.60;;;4.30;;
26478;SDS011;14163;-26.142;27.992;2022-07-06T13:47:38;4.47;;;4.17;;
26478;SDS011;14163;-26.142;27.992;2022-07-06T13:50:09;4.83;;;4.53;;
26478;SDS011;14163;-26.142;27.992;2022-07-06T13:52:38;5.10;;;4.00;;
26478;SDS011;14163;-26.142;27.992;2022-07-06T13:55:08;4.27;;;3.93;;
26478;SDS011;14163;-26.142;27.992;2022-07-06T13:57:37;4.80;;;4.50;;
26478;SDS011;14163;-26.142;27.992;2022-07-06T14:00:08;6.00;;;5.50;;
26478;SDS011;14163;-26.142;27.992;2022-07-06T14:02:38;4.20;;;4.00;;
26478;SDS011;14163;-26.142;27.992;2022-07-06T14:05:09;6.90;;;6.50;;
26478;SDS011;14163;-26.142;27.992;2022-07-06T16:12:30;11.50;;;9.93;;
26478;SDS011;14163;-26.142;27.992;2022-07-06T16:14:59;14.03;;;11.30;;
26478;SDS011;14163;-26.142;27.992;2022-07-06T16:17:28;12.17;;;10.93;;
26478;SDS011;14163;-26.142;27.992;2022-07-06T16:19:57;12.07;;;10.87;;
26478;SDS011;14163;-26.142;27.992;2022-07-06T16:22:26;14.30;;;12.60;;
26478;SDS011;14163;-26.142;27.992;2022-07-06T16:24:56;13.87;;;11.83;;
26478;SDS011;14163;-26.142;27.992;2022-07-06T16:27:25;12.37;;;11.17;;
26478;SDS011;14163;-26.142;27.992;2022-07-06T16:29:56;14.23;;;12.77;;
26478;SDS011;14163;-26.142;27.992;2022-07-06T16:32:26;15.00;;;12.40;;
26478;SDS011;14163;-26.142;27.992;2022-07-06T16:34:55;14.80;;;12.90;;
26478;SDS011;14163;-26.142;27.992;2022-07-06T16:37:25;13.07;;;11.77;;
26478;SDS011;14163;-26.142;27.992;2022-07-06T16:39:54;14.17;;;12.67;;
26478;SDS011;14163;-26.142;27.992;2022-07-06T16:42:23;15.20;;;12.40;;
26478;SDS011;14163;-26.142;27.992;2022-07-06T16:44:52;15.63;;;12.97;;
26478;SDS011;14163;-26.142;27.992;2022-07-06T16:47:23;14.27;;;12.50;;
26478;SDS011;14163;-26.142;27.992;2022-07-06T16:49:52;14.10;;;11.80;;
26478;SDS011;14163;-26.142;27.992;2022-07-06T16:52:23;15.00;;;13.37;;
26478;SDS011;14163;-26.142;27.992;2022-07-06T16:54:52;15.23;;;13.73;;
26478;SDS011;14163;-26.142;27.992;2022-07-06T16:57:21;18.10;;;13.10;;
26478;SDS011;14163;-26.142;27.992;2022-07-06T16:59:51;15.80;;;12.60;;
26478;SDS011;14163;-26.142;27.992;2022-07-06T17:02:20;15.50;;;12.90;;
26478;SDS011;14163;-26.142;27.992;2022-07-06T17:04:51;16.13;;;14.50;;
26478;SDS011;14163;-26.142;27.992;2022-07-06T17:07:20;19.70;;;14.77;;
26478;SDS011;14163;-26.142;27.992;2022-07-06T17:09:49;15.13;;;13.53;;
26478;SDS011;14163;-26.142;27.992;2022-07-06T17:12:19;16.77;;;14.97;;
26478;SDS011;14163;-26.142;27.992;2022-07-06T17:14:48;16.30;;;14.50;;
26478;SDS011;14163;-26.142;27.992;2022-07-06T17:17:17;17.97;;;14.60;;
26478;SDS011;14163;-26.142;27.992;2022-07-06T17:19:48;27.07;;;20.00;;
26478;SDS011;14163;-26.142;27.992;2022-07-06T17:22:18;33.93;;;23.60;;
26478;SDS011;14163;-26.142;27.992;2022-07-06T17:24:47;17.30;;;15.10;;
26478;SDS011;14163;-26.142;27.992;2022-07-06T17:27:16;17.87;;;16.07;;
26478;SDS011;14163;-26.142;27.992;2022-07-06T17:29:45;23.03;;;15.53;;
26478;SDS011;14163;-26.142;27.992;2022-07-06T17:32:15;17.67;;;15.67;;
26478;SDS011;14163;-26.142;27.992;2022-07-06T17:34:44;19.40;;;17.43;;
26478;SDS011;14163;-26.142;27.992;2022-07-06T17:37:16;23.00;;;17.53;;
26478;SDS011;14163;-26.142;27.992;2022-07-06T17:39:45;18.97;;;16.97;;
26478;SDS011;14163;-26.142;27.992;2022-07-06T17:42:14;23.00;;;16.80;;
26478;SDS011;14163;-26.142;27.992;2022-07-06T17:44:46;18.10;;;16.23;;
26478;SDS011;14163;-26.142;27.992;2022-07-06T17:47:15;22.37;;;17.30;;
26478;SDS011;14163;-26.142;27.992;2022-07-06T17:49:44;18.47;;;16.53;;
26478;SDS011;14163;-26.142;27.992;2022-07-06T17:52:15;22.27;;;19.20;;
26478;SDS011;14163;-26.142;27.992;2022-07-06T17:54:45;23.80;;;21.20;;
26478;SDS011;14163;-26.142;27.992;2022-07-06T17:57:15;25.20;;;22.23;;
26478;SDS011;14163;-26.142;27.992;2022-07-06T17:59:44;26.37;;;23.53;;
26478;SDS011;14163;-26.142;27.992;2022-07-06T18:02:13;29.30;;;24.70;;
26478;SDS011;14163;-26.142;27.992;2022-07-06T18:04:42;26.53;;;23.83;;
26478;SDS011;14163;-26.142;27.992;2022-07-06T18:07:11;28.33;;;25.40;;
26478;SDS011;14163;-26.142;27.992;2022-07-06T18:09:42;27.40;;;22.93;;
26478;SDS011;14163;-26.142;27.992;2022-07-06T18:12:12;30.20;;;26.20;;
26478;SDS011;14163;-26.142;27.992;2022-07-06T18:14:41;29.93;;;26.80;;
26478;SDS011;14163;-26.142;27.992;2022-07-06T18:17:11;35.70;;;31.80;;